createdAt,value
2024-04-15T00:00:37.346Z,31.57
2024-04-15T00:01:37.450Z,31.60
2024-04-15T00:02:37.515Z,31.61
2024-04-15T00:03:37.542Z,31.57
2024-04-15T00:04:37.651Z,31.58
2024-04-15T00:05:37.757Z,31.57
2024-04-15T00:06:37.832Z,31.54
2024-04-15T00:07:37.963Z,31.55
2024-04-15T00:08:38.100Z,31.54
2024-04-15T00:09:38.208Z,31.51
2024-04-15T00:10:38.151Z,31.54
2024-04-15T00:11:38.268Z,31.55
2024-04-15T00:12:38.411Z,31.48
2024-04-15T00:13:38.414Z,31.49
2024-04-15T00:14:38.499Z,31.51
2024-04-15T00:15:38.618Z,31.55
2024-04-15T00:16:38.768Z,31.52
2024-04-15T00:17:38.736Z,31.55
2024-04-15T00:18:39.052Z,31.59
2024-04-15T00:19:38.914Z,31.55
2024-04-15T00:20:38.977Z,31.52
2024-04-15T00:21:39.109Z,31.56
2024-04-15T00:22:39.170Z,31.55
2024-04-15T00:23:39.257Z,31.57
2024-04-15T00:24:39.324Z,31.59
2024-04-15T00:25:39.433Z,31.50
2024-04-15T00:26:39.522Z,31.53
2024-04-15T00:27:39.652Z,31.50
2024-04-15T00:28:39.663Z,31.53
2024-04-15T00:29:39.781Z,31.52
2024-04-15T00:30:39.839Z,31.47
2024-04-15T00:31:39.940Z,31.47
2024-04-15T00:32:40.071Z,31.53
2024-04-15T00:33:40.214Z,31.50
2024-04-15T00:34:40.193Z,31.49
2024-04-15T00:35:40.248Z,31.49
2024-04-15T00:36:40.408Z,31.51
2024-04-15T00:37:40.428Z,31.46
2024-04-15T00:38:40.510Z,31.46
2024-04-15T00:39:40.620Z,31.49
2024-04-15T00:40:40.661Z,31.48
2024-04-15T00:41:40.772Z,31.51
2024-04-15T00:42:40.849Z,31.51
2024-04-15T00:43:40.919Z,31.51
2024-04-15T00:44:40.987Z,31.48
2024-04-15T00:45:41.142Z,31.42
2024-04-15T00:46:41.218Z,31.45
2024-04-15T00:47:41.301Z,31.45
2024-04-15T00:48:41.389Z,31.50
2024-04-15T00:49:41.421Z,31.51
2024-04-15T00:50:41.524Z,31.45
2024-04-15T00:51:41.619Z,31.54
2024-04-15T00:52:41.649Z,31.47
2024-04-15T00:53:41.775Z,31.41
2024-04-15T00:54:41.872Z,31.39
2024-04-15T00:55:41.953Z,31.40
2024-04-15T00:56:41.997Z,31.33
2024-04-15T00:57:42.113Z,31.35
2024-04-15T00:58:42.163Z,31.38
2024-04-15T00:59:42.287Z,31.36
2024-04-15T01:00:42.530Z,31.42
2024-04-15T01:01:42.502Z,31.40
2024-04-15T01:02:42.522Z,31.45
2024-04-15T01:03:43.688Z,31.50
2024-04-15T01:04:42.706Z,31.49
2024-04-15T01:05:42.676Z,31.46
2024-04-15T01:06:42.753Z,31.58
2024-04-15T01:07:42.798Z,31.56
2024-04-15T01:08:42.809Z,31.53
2024-04-15T01:09:42.928Z,31.59
2024-04-15T01:10:51.495Z,31.59
2024-04-15T01:11:43.966Z,31.61
2024-04-15T01:12:42.884Z,31.59
2024-04-15T01:13:42.909Z,31.62
2024-04-15T01:14:42.909Z,31.60
2024-04-15T01:15:42.924Z,31.63
2024-04-15T01:16:42.918Z,31.62
2024-04-15T01:17:43.010Z,31.59
2024-04-15T01:18:42.982Z,31.57
2024-04-15T01:19:42.954Z,31.56
2024-04-15T01:20:42.940Z,31.56
2024-04-15T01:21:42.994Z,31.51
2024-04-15T01:22:42.948Z,31.54
2024-04-15T01:23:43.058Z,31.50
2024-04-15T01:24:43.147Z,31.50
2024-04-15T01:25:43.199Z,31.50
2024-04-15T01:26:43.356Z,31.53
2024-04-15T01:27:43.442Z,31.47
2024-04-15T01:28:43.509Z,31.47
2024-04-15T01:29:43.627Z,31.47
2024-04-15T01:30:43.794Z,31.47
2024-04-15T01:31:43.783Z,31.47
2024-04-15T01:32:43.864Z,31.45
2024-04-15T01:33:43.949Z,31.44
2024-04-15T01:34:44.048Z,31.45
2024-04-15T01:35:44.108Z,31.43
2024-04-15T01:36:44.238Z,31.35
2024-04-15T01:37:44.309Z,31.39
2024-04-15T01:38:44.437Z,31.32
2024-04-15T01:39:44.563Z,31.25
2024-04-15T01:40:44.575Z,31.21
2024-04-15T01:41:44.727Z,31.22
2024-04-15T01:42:44.775Z,31.15
2024-04-15T01:43:44.866Z,31.16
2024-04-15T01:44:44.947Z,31.20
2024-04-15T01:45:45.056Z,31.23
2024-04-15T01:46:45.170Z,31.16
2024-04-15T01:47:45.298Z,31.23
2024-04-15T01:48:45.353Z,31.27
2024-04-15T01:49:45.398Z,31.33
2024-04-15T01:50:45.492Z,31.35
2024-04-15T01:51:45.639Z,31.39
2024-04-15T01:52:45.696Z,31.36
2024-04-15T01:53:45.766Z,31.39
2024-04-15T01:54:45.946Z,31.42
2024-04-15T01:55:45.956Z,31.44
2024-04-15T01:56:46.057Z,31.45
2024-04-15T01:57:46.220Z,31.43
2024-04-15T01:58:46.273Z,31.42
2024-04-15T01:59:46.370Z,31.39
2024-04-15T02:00:46.467Z,31.32
2024-04-15T02:01:46.561Z,31.23
2024-04-15T02:02:46.646Z,31.22
2024-04-15T02:03:46.770Z,31.19
2024-04-15T02:04:46.940Z,31.13
2024-04-15T02:05:46.936Z,31.06
2024-04-15T02:06:47.072Z,31.07
2024-04-15T02:07:47.092Z,31.02
2024-04-15T02:08:47.229Z,31.00
2024-04-15T02:09:47.312Z,30.94
2024-04-15T02:10:47.434Z,30.88
2024-04-15T02:11:47.520Z,30.91
2024-04-15T02:12:47.656Z,30.91
2024-04-15T02:13:47.713Z,30.92
2024-04-15T02:14:47.824Z,30.95
2024-04-15T02:15:48.500Z,31.04
2024-04-15T02:16:47.966Z,31.11
2024-04-15T02:17:47.972Z,31.24
2024-04-15T02:18:48.005Z,31.30
2024-04-15T02:19:47.999Z,31.29
2024-04-15T02:20:48.020Z,31.36
2024-04-15T02:21:48.083Z,31.37
2024-04-15T02:22:48.110Z,31.43
2024-04-15T02:23:48.144Z,31.46
2024-04-15T02:24:48.214Z,31.46
2024-04-15T02:25:48.227Z,31.53
2024-04-15T02:26:48.332Z,31.53
2024-04-15T02:27:48.446Z,31.59
2024-04-15T02:28:48.523Z,31.54
2024-04-15T02:29:48.612Z,31.66
2024-04-15T02:30:48.743Z,31.66
2024-04-15T02:31:48.933Z,31.67
2024-04-15T02:32:48.968Z,31.70
2024-04-15T02:33:49.051Z,31.67
2024-04-15T02:34:49.172Z,31.70
2024-04-15T02:35:49.282Z,31.61
2024-04-15T02:36:49.394Z,31.61
2024-04-15T02:37:49.497Z,31.63
2024-04-15T02:38:49.653Z,31.63
2024-04-15T02:39:49.706Z,31.66
2024-04-15T02:40:49.761Z,31.59
2024-04-15T02:41:49.882Z,31.59
2024-04-15T02:42:49.992Z,31.56
2024-04-15T02:43:50.095Z,31.57
2024-04-15T02:44:50.238Z,31.60
2024-04-15T02:45:50.319Z,31.59
2024-04-15T02:46:50.388Z,31.60
2024-04-15T02:47:50.588Z,31.59
2024-04-15T02:48:50.603Z,31.61
2024-04-15T02:49:50.702Z,31.50
2024-04-15T02:50:50.821Z,31.54
2024-04-15T02:51:50.922Z,31.48
2024-04-15T02:52:51.004Z,31.45
2024-04-15T02:53:51.111Z,31.47
2024-04-15T02:54:51.274Z,31.41
2024-04-15T02:55:51.312Z,31.41
2024-04-15T02:56:51.406Z,31.45
2024-04-15T02:57:51.555Z,31.34
2024-04-15T02:58:51.631Z,31.32
2024-04-15T02:59:51.726Z,31.37
2024-04-15T03:00:51.907Z,31.34
2024-04-15T03:01:51.987Z,31.28
2024-04-15T03:02:52.082Z,31.25
2024-04-15T03:03:52.295Z,31.16
2024-04-15T03:04:52.322Z,31.16
2024-04-15T03:05:52.354Z,31.15
2024-04-15T03:06:52.482Z,31.19
2024-04-15T03:07:52.580Z,31.18
2024-04-15T03:08:52.688Z,31.12
2024-04-15T03:09:52.803Z,31.12
2024-04-15T03:10:52.900Z,31.13
2024-04-15T03:11:53.025Z,31.15
2024-04-15T03:12:53.292Z,31.09
2024-04-15T03:13:53.184Z,31.07
2024-04-15T03:14:53.333Z,31.06
2024-04-15T03:15:53.425Z,31.07
2024-04-15T03:16:53.572Z,31.07
2024-04-15T03:17:53.657Z,31.09
2024-04-15T03:18:53.792Z,30.96
2024-04-15T03:19:53.837Z,30.97
2024-04-15T03:20:53.938Z,30.89
2024-04-15T03:21:54.097Z,30.94
2024-04-15T03:22:54.154Z,30.89
2024-04-15T03:23:54.217Z,30.93
2024-04-15T03:24:54.394Z,30.93
2024-04-15T03:25:54.426Z,30.89
2024-04-15T03:26:54.532Z,30.90
2024-04-15T03:27:54.659Z,30.96
2024-04-15T03:28:54.782Z,30.90
2024-04-15T03:29:54.873Z,30.89
2024-04-15T03:30:54.964Z,30.90
2024-04-15T03:31:55.124Z,30.90
2024-04-15T03:32:55.231Z,30.90
2024-04-15T03:33:55.314Z,31.00
2024-04-15T03:34:55.410Z,30.94
2024-04-15T03:35:55.570Z,30.95
2024-04-15T03:36:55.657Z,30.97
2024-04-15T03:37:55.750Z,31.02
2024-04-15T03:38:55.846Z,31.09
2024-04-15T03:39:57.551Z,31.07
2024-04-15T03:40:55.983Z,31.10
2024-04-15T03:41:56.016Z,31.13
2024-04-15T03:42:56.088Z,31.23
2024-04-15T03:43:56.098Z,31.23
2024-04-15T03:44:56.104Z,31.32
2024-04-15T03:45:56.212Z,31.36
2024-04-15T03:46:56.316Z,31.52
2024-04-15T03:47:56.408Z,31.49
2024-04-15T03:48:56.535Z,31.50
2024-04-15T03:49:56.653Z,31.56
2024-04-15T03:50:56.722Z,31.60
2024-04-15T03:51:56.827Z,31.62
2024-04-15T03:52:56.936Z,31.63
2024-04-15T03:53:57.072Z,31.63
2024-04-15T03:54:57.206Z,31.69
2024-04-15T03:55:57.279Z,31.66
2024-04-15T03:56:57.377Z,31.74
2024-04-15T03:57:57.547Z,31.78
2024-04-15T03:58:57.618Z,31.81
2024-04-15T03:59:57.721Z,31.79
2024-04-15T04:00:57.897Z,31.83
2024-04-15T04:01:58.002Z,31.88
2024-04-15T04:02:58.077Z,31.88
2024-04-15T04:03:58.302Z,31.90
2024-04-15T04:04:58.410Z,31.95
2024-04-15T04:06:09.807Z,31.98
2024-04-15T04:06:59.441Z,32.02
2024-04-15T04:07:58.371Z,31.99
2024-04-15T04:08:58.351Z,32.05
2024-04-15T04:09:58.398Z,32.00
2024-04-15T04:10:58.395Z,32.03
2024-04-15T04:11:58.404Z,32.03
2024-04-15T04:12:58.432Z,32.03
2024-04-15T04:13:58.380Z,32.09
2024-04-15T04:14:58.386Z,32.06
2024-04-15T04:15:58.416Z,32.03
2024-04-15T04:16:58.414Z,32.06
2024-04-15T04:17:58.520Z,32.09
2024-04-15T04:18:58.450Z,32.02
2024-04-15T04:19:58.420Z,31.90
2024-04-15T04:20:58.388Z,31.86
2024-04-15T04:21:58.520Z,31.86
2024-04-15T04:22:58.659Z,31.79
2024-04-15T04:23:58.711Z,31.70
2024-04-15T04:24:58.927Z,31.60
2024-04-15T04:25:58.938Z,31.50
2024-04-15T04:26:59.052Z,31.44
2024-04-15T04:27:59.224Z,31.42
2024-04-15T04:28:59.277Z,31.36
2024-04-15T04:29:59.370Z,31.41
2024-04-15T04:30:59.453Z,31.29
2024-04-15T04:31:59.624Z,31.26
2024-04-15T04:32:59.763Z,31.31
2024-04-15T04:33:59.845Z,31.18
2024-04-15T04:34:59.915Z,31.10
2024-04-15T04:36:00.009Z,31.14
2024-04-15T04:37:00.123Z,31.14
2024-04-15T04:38:00.244Z,31.12
2024-04-15T04:39:00.353Z,31.14
2024-04-15T04:40:00.577Z,31.15
2024-04-15T04:41:00.587Z,31.12
2024-04-15T04:42:00.656Z,31.14
2024-04-15T04:43:00.814Z,31.18
2024-04-15T04:44:00.882Z,31.10
2024-04-15T04:45:00.973Z,31.16
2024-04-15T04:46:01.166Z,31.16
2024-04-15T04:47:01.212Z,31.22
2024-04-15T04:48:01.451Z,31.16
2024-04-15T04:49:01.431Z,31.20
2024-04-15T04:50:01.536Z,31.36
2024-04-15T04:51:01.644Z,32.74
2024-04-15T04:52:08.995Z,33.22
2024-04-15T04:53:08.944Z,32.85
2024-04-15T04:54:08.960Z,33.03
2024-04-15T04:55:08.990Z,33.25
2024-04-15T04:56:08.961Z,33.56
2024-04-15T04:57:08.964Z,33.81
2024-04-15T04:58:09.028Z,33.99
2024-04-15T04:59:08.956Z,34.40
2024-04-15T05:00:08.960Z,34.69
2024-04-15T05:01:09.060Z,34.79
2024-04-15T05:02:09.156Z,35.06
2024-04-15T05:03:09.041Z,35.19
2024-04-15T05:04:09.051Z,35.41
2024-04-15T05:05:09.015Z,35.36
2024-04-15T05:06:09.059Z,35.59
2024-04-15T05:07:09.021Z,35.69
2024-04-15T05:08:08.999Z,35.69
2024-04-15T05:09:11.351Z,36.06
2024-04-15T05:10:09.008Z,36.00
2024-04-15T05:11:09.040Z,36.06
2024-04-15T05:12:09.006Z,36.26
2024-04-15T05:13:08.998Z,36.40
2024-04-15T05:14:08.984Z,36.31
2024-04-15T05:15:08.990Z,36.38
2024-04-15T05:16:09.001Z,36.36
2024-04-15T05:17:09.009Z,36.42
2024-04-15T05:18:09.125Z,36.60
2024-04-15T05:19:09.057Z,36.37
2024-04-15T05:20:08.995Z,36.18
2024-04-15T05:21:09.039Z,36.51
2024-04-15T05:22:09.038Z,36.65
2024-04-15T05:23:08.996Z,36.60
2024-04-15T05:24:09.002Z,36.49
2024-04-15T05:25:09.015Z,36.54
2024-04-15T05:26:08.996Z,36.53
2024-04-15T05:27:09.025Z,36.71
2024-04-15T05:28:09.066Z,36.72
2024-04-15T05:29:09.019Z,36.88
2024-04-15T05:30:09.021Z,36.70
2024-04-15T05:31:09.051Z,37.00
2024-04-15T05:32:09.084Z,36.90
2024-04-15T05:33:09.061Z,37.10
2024-04-15T05:34:09.062Z,37.20
2024-04-15T05:35:09.038Z,37.23
2024-04-15T05:36:09.024Z,37.27
2024-04-15T05:37:09.064Z,37.47
2024-04-15T05:38:09.048Z,37.17
2024-04-15T05:39:09.085Z,37.09
2024-04-15T05:40:09.101Z,37.22
2024-04-15T05:41:09.061Z,37.29
2024-04-15T05:42:09.044Z,37.86
2024-04-15T05:43:09.125Z,38.06
2024-04-15T05:44:09.118Z,38.00
2024-04-15T05:45:09.251Z,37.94
2024-04-15T05:46:09.394Z,38.01
2024-04-15T05:47:09.457Z,38.30
2024-04-15T05:48:09.822Z,38.29
2024-04-15T05:49:09.741Z,38.44
2024-04-15T05:50:09.768Z,38.35
2024-04-15T05:51:09.884Z,38.49
2024-04-15T05:52:10.013Z,38.53
2024-04-15T05:53:10.110Z,38.24
2024-04-15T05:54:10.209Z,38.22
2024-04-15T05:55:10.387Z,38.70
2024-04-15T05:56:10.434Z,38.06
2024-04-15T05:57:10.536Z,38.07
2024-04-15T05:58:10.682Z,38.25
2024-04-15T05:59:10.714Z,38.09
2024-04-15T06:00:10.831Z,37.35
2024-04-15T06:01:11.035Z,37.56
2024-04-15T06:02:11.116Z,37.69
2024-04-15T06:03:11.109Z,37.78
2024-04-15T06:04:11.196Z,38.55
2024-04-15T06:05:11.245Z,38.50
2024-04-15T06:06:11.314Z,38.80
2024-04-15T06:07:11.414Z,39.46
2024-04-15T06:08:12.079Z,39.83
2024-04-15T06:09:11.606Z,39.65
2024-04-15T06:10:11.750Z,39.76
2024-04-15T06:11:11.854Z,39.62
2024-04-15T06:12:11.823Z,39.92
2024-04-15T06:13:11.967Z,39.99
2024-04-15T06:14:11.946Z,39.80
2024-04-15T06:15:12.013Z,39.92
2024-04-15T06:16:12.181Z,39.96
2024-04-15T06:17:12.225Z,40.20
2024-04-15T06:18:12.297Z,40.07
2024-04-15T06:19:12.391Z,40.59
2024-04-15T06:20:12.425Z,40.54
2024-04-15T06:21:12.503Z,40.50
2024-04-15T06:22:12.693Z,40.24
2024-04-15T06:23:12.677Z,40.42
2024-04-15T06:24:12.798Z,40.23
2024-04-15T06:25:12.854Z,40.11
2024-04-15T06:26:12.930Z,40.05
2024-04-15T06:27:13.011Z,40.38
2024-04-15T06:28:13.092Z,40.52
2024-04-15T06:29:13.148Z,40.50
2024-04-15T06:30:13.208Z,40.33
2024-04-15T06:31:13.375Z,40.20
2024-04-15T06:32:13.541Z,40.48
2024-04-15T06:33:13.617Z,40.70
2024-04-15T06:34:13.712Z,41.04
2024-04-15T06:35:13.744Z,41.17
2024-04-15T06:36:13.824Z,41.11
2024-04-15T06:37:13.911Z,41.41
2024-04-15T06:38:14.008Z,41.40
2024-04-15T06:39:14.044Z,41.35
2024-04-15T06:40:14.141Z,41.43
2024-04-15T06:41:14.215Z,41.45
2024-04-15T06:42:14.307Z,41.71
2024-04-15T06:43:14.457Z,41.70
2024-04-15T06:44:14.532Z,41.70
2024-04-15T06:45:14.612Z,41.78
2024-04-15T06:46:14.832Z,41.70
2024-04-15T06:47:14.973Z,41.55
2024-04-15T06:48:14.934Z,41.69
2024-04-15T06:49:15.067Z,41.54
2024-04-15T06:50:15.138Z,41.21
2024-04-15T06:51:15.242Z,41.14
2024-04-15T06:52:15.410Z,40.88
2024-04-15T06:53:15.441Z,40.79
2024-04-15T06:54:15.573Z,40.63
2024-04-15T06:55:15.709Z,40.47
2024-04-15T06:56:15.749Z,40.51
2024-04-15T06:57:15.882Z,40.57
2024-04-15T06:58:16.063Z,40.52
2024-04-15T06:59:16.050Z,40.69
2024-04-15T07:00:16.117Z,40.58
2024-04-15T07:01:16.302Z,40.56
2024-04-15T07:02:16.490Z,40.51
2024-04-15T07:03:17.013Z,40.35
2024-04-15T07:04:16.547Z,40.35
2024-04-15T07:05:16.553Z,40.25
2024-04-15T07:06:16.641Z,40.37
2024-04-15T07:07:16.742Z,40.47
2024-04-15T07:08:16.817Z,40.61
2024-04-15T07:09:16.898Z,40.68
2024-04-15T07:10:16.988Z,40.80
2024-04-15T07:11:17.061Z,40.85
2024-04-15T07:12:17.129Z,40.97
2024-04-15T07:13:17.287Z,40.91
2024-04-15T07:14:17.290Z,41.09
2024-04-15T07:15:17.379Z,41.11
2024-04-15T07:16:17.592Z,41.16
2024-04-15T07:17:17.590Z,41.22
2024-04-15T07:18:17.681Z,41.38
2024-04-15T07:19:17.805Z,41.22
2024-04-15T07:20:17.826Z,41.33
2024-04-15T07:21:17.927Z,41.30
2024-04-15T07:22:18.038Z,41.27
2024-04-15T07:23:20.933Z,41.39
2024-04-15T07:24:18.093Z,41.51
2024-04-15T07:25:18.216Z,41.42
2024-04-15T07:26:18.067Z,41.29
2024-04-15T07:27:18.111Z,41.31
2024-04-15T07:28:18.139Z,41.23
2024-04-15T07:29:18.092Z,41.25
2024-04-15T07:30:18.093Z,41.20
2024-04-15T07:31:18.145Z,41.21
2024-04-15T07:32:18.130Z,41.07
2024-04-15T07:33:18.110Z,40.91
2024-04-15T07:34:18.175Z,40.92
2024-04-15T07:35:18.098Z,40.79
2024-04-15T07:36:18.094Z,40.81
2024-04-15T07:37:18.337Z,40.68
2024-04-15T07:38:18.154Z,40.72
2024-04-15T07:39:18.124Z,40.93
2024-04-15T07:40:18.198Z,41.12
2024-04-15T07:41:18.181Z,41.13
2024-04-15T07:42:25.205Z,41.33
2024-04-15T07:43:19.212Z,41.15
2024-04-15T07:44:18.148Z,41.19
2024-04-15T07:45:18.196Z,41.39
2024-04-15T07:46:20.165Z,41.43
2024-04-15T07:47:18.271Z,41.59
2024-04-15T07:48:18.157Z,41.60
2024-04-15T07:49:18.228Z,41.67
2024-04-15T07:50:18.172Z,41.68
2024-04-15T07:51:18.207Z,41.60
2024-04-15T07:52:18.228Z,41.75
2024-04-15T07:53:18.165Z,41.96
2024-04-15T07:54:18.148Z,41.90
2024-04-15T07:55:18.237Z,41.94
2024-04-15T07:56:18.156Z,41.85
2024-04-15T07:57:18.174Z,41.78
2024-04-15T07:58:18.195Z,41.74
2024-04-15T07:59:18.152Z,41.80
2024-04-15T08:00:18.194Z,41.70
2024-04-15T08:01:18.285Z,41.75
2024-04-15T08:02:18.314Z,41.66
2024-04-15T08:03:18.187Z,41.56
2024-04-15T08:04:18.300Z,41.49
2024-04-15T08:05:18.181Z,41.56
2024-04-15T08:06:18.205Z,41.48
2024-04-15T08:07:18.218Z,41.45
2024-04-15T08:08:18.205Z,41.57
2024-04-15T08:09:18.176Z,41.82
2024-04-15T08:10:18.238Z,42.13
2024-04-15T08:11:18.217Z,41.87
2024-04-15T08:12:18.184Z,42.16
2024-04-15T08:13:18.263Z,42.05
2024-04-15T08:14:18.198Z,42.22
2024-04-15T08:15:18.209Z,42.27
2024-04-15T08:16:18.326Z,42.22
2024-04-15T08:17:18.429Z,42.38
2024-04-15T08:18:18.446Z,42.21
2024-04-15T08:19:18.587Z,42.17
2024-04-15T08:20:18.666Z,42.42
2024-04-15T08:21:18.773Z,42.18
2024-04-15T08:22:18.975Z,42.29
2024-04-15T08:23:18.955Z,42.30
2024-04-15T08:24:19.046Z,42.25
2024-04-15T08:25:19.154Z,42.22
2024-04-15T08:26:19.263Z,42.10
2024-04-15T08:27:19.382Z,42.06
2024-04-15T08:28:19.584Z,41.95
2024-04-15T08:29:19.560Z,41.87
2024-04-15T08:30:19.671Z,41.82
2024-04-15T08:31:19.849Z,41.65
2024-04-15T08:32:19.859Z,41.59
2024-04-15T08:33:20.073Z,41.47
2024-04-15T08:34:20.171Z,41.55
2024-04-15T08:35:20.164Z,41.75
2024-04-15T08:36:20.250Z,41.82
2024-04-15T08:37:20.383Z,41.90
2024-04-15T08:38:20.447Z,41.98
2024-04-15T08:39:20.546Z,41.94
2024-04-15T08:40:20.782Z,42.01
2024-04-15T08:41:20.758Z,42.01
2024-04-15T08:42:20.902Z,41.89
2024-04-15T08:43:21.020Z,41.61
2024-04-15T08:44:20.985Z,41.20
2024-04-15T08:45:21.087Z,41.23
2024-04-15T08:46:21.195Z,40.63
2024-04-15T08:47:21.326Z,40.91
2024-04-15T08:48:21.321Z,40.85
2024-04-15T08:49:21.450Z,41.02
2024-04-15T08:50:21.514Z,41.00
2024-04-15T08:51:21.583Z,41.22
2024-04-15T08:52:21.739Z,41.00
2024-04-15T08:53:21.770Z,41.04
2024-04-15T08:54:21.837Z,41.00
2024-04-15T08:55:22.017Z,40.99
2024-04-15T08:56:22.005Z,40.80
2024-04-15T08:57:22.112Z,40.77
2024-04-15T08:58:22.334Z,40.66
2024-04-15T08:59:22.283Z,40.58
2024-04-15T09:00:22.368Z,40.51
2024-04-15T09:01:22.526Z,40.44
2024-04-15T09:02:22.588Z,40.26
2024-04-15T09:03:22.591Z,40.28
2024-04-15T09:04:22.734Z,40.47
2024-04-15T09:05:22.884Z,40.61
2024-04-15T09:06:22.862Z,40.66
2024-04-15T09:07:23.000Z,40.73
2024-04-15T09:08:23.164Z,41.08
2024-04-15T09:09:23.097Z,41.04
2024-04-15T09:10:23.289Z,41.23
2024-04-15T09:11:23.286Z,41.21
2024-04-15T09:12:23.356Z,41.28
2024-04-15T09:13:23.477Z,41.33
2024-04-15T09:14:23.503Z,41.42
2024-04-15T09:15:23.622Z,41.50
2024-04-15T09:16:23.769Z,41.58
2024-04-15T09:17:23.807Z,41.60
2024-04-15T09:18:23.859Z,41.63
2024-04-15T09:19:24.005Z,41.62
2024-04-15T09:20:35.141Z,41.59
2024-04-15T09:21:25.051Z,41.50
2024-04-15T09:22:24.085Z,41.39
2024-04-15T09:23:24.076Z,41.36
2024-04-15T09:24:24.036Z,41.25
2024-04-15T09:25:24.094Z,41.17
2024-04-15T09:26:24.042Z,41.07
2024-04-15T09:27:24.083Z,41.00
2024-04-15T09:28:24.197Z,41.09
2024-04-15T09:29:24.090Z,41.07
2024-04-15T09:30:24.096Z,40.82
2024-04-15T09:31:24.133Z,40.63
2024-04-15T09:32:24.143Z,40.43
2024-04-15T09:33:24.103Z,40.47
2024-04-15T09:34:24.239Z,40.45
2024-04-15T09:35:24.101Z,40.63
2024-04-15T09:36:24.097Z,40.83
2024-04-15T09:37:24.110Z,40.82
2024-04-15T09:38:24.103Z,40.85
2024-04-15T09:39:24.142Z,40.86
2024-04-15T09:40:24.245Z,40.93
2024-04-15T09:41:24.187Z,40.88
2024-04-15T09:42:24.251Z,40.92
2024-04-15T09:43:24.331Z,43.05
2024-04-15T09:44:24.391Z,40.15
2024-04-15T09:45:24.507Z,40.42
2024-04-15T09:46:24.633Z,40.26
2024-04-15T09:47:24.770Z,40.20
2024-04-15T09:48:24.839Z,40.23
2024-04-15T09:49:24.880Z,40.39
2024-04-15T09:50:24.915Z,40.57
2024-04-15T09:51:25.006Z,40.66
2024-04-15T09:52:25.114Z,40.86
2024-04-15T09:53:25.160Z,40.92
2024-04-15T09:54:25.265Z,40.93
2024-04-15T09:55:25.383Z,41.03
2024-04-15T09:56:25.413Z,41.06
2024-04-15T09:57:25.534Z,41.11
2024-04-15T09:58:25.736Z,41.08
2024-04-15T09:59:25.690Z,41.09
2024-04-15T10:00:26.673Z,41.06
2024-04-15T10:01:26.007Z,41.02
2024-04-15T10:02:26.006Z,40.95
2024-04-15T10:03:26.062Z,40.92
2024-04-15T10:04:26.184Z,40.90
2024-04-15T10:05:26.207Z,41.04
2024-04-15T10:06:26.254Z,41.24
2024-04-15T10:07:26.391Z,41.16
2024-04-15T10:08:26.419Z,41.49
2024-04-15T10:09:26.501Z,41.55
2024-04-15T10:10:26.656Z,41.68
2024-04-15T10:11:26.768Z,41.86
2024-04-15T10:12:26.802Z,41.97
2024-04-15T10:13:26.887Z,42.08
2024-04-15T10:14:26.941Z,42.18
2024-04-15T10:15:27.013Z,42.32
2024-04-15T10:16:36.854Z,42.41
2024-04-15T10:17:28.368Z,42.48
2024-04-15T10:18:27.243Z,42.43
2024-04-15T10:19:27.317Z,42.57
2024-04-15T10:20:27.327Z,42.50
2024-04-15T10:21:27.394Z,42.47
2024-04-15T10:22:27.491Z,42.57
2024-04-15T10:23:27.565Z,42.64
2024-04-15T10:24:27.649Z,42.51
2024-04-15T10:25:27.783Z,42.36
2024-04-15T10:26:27.817Z,42.48
2024-04-15T10:27:27.904Z,42.42
2024-04-15T10:28:28.049Z,42.27
2024-04-15T10:29:28.044Z,42.30
2024-04-15T10:30:28.143Z,42.15
2024-04-15T10:31:28.281Z,42.15
2024-04-15T10:32:28.382Z,42.12
2024-04-15T10:33:28.391Z,42.02
2024-04-15T10:34:28.544Z,41.95
2024-04-15T10:35:28.550Z,41.90
2024-04-15T10:36:28.618Z,41.83
2024-04-15T10:37:28.728Z,41.82
2024-04-15T10:38:28.776Z,41.92
2024-04-15T10:39:28.861Z,41.90
2024-04-15T10:40:30.060Z,42.11
2024-04-15T10:41:29.011Z,42.59
2024-04-15T10:42:29.079Z,42.37
2024-04-15T10:43:29.219Z,42.57
2024-04-15T10:44:29.267Z,42.70
2024-04-15T10:45:29.329Z,43.01
2024-04-15T10:46:29.463Z,43.14
2024-04-15T10:47:29.529Z,43.12
2024-04-15T10:48:29.623Z,43.46
2024-04-15T10:49:29.662Z,43.35
2024-04-15T10:50:29.720Z,43.43
2024-04-15T10:51:29.830Z,43.53
2024-04-15T10:52:29.911Z,43.50
2024-04-15T10:53:29.916Z,43.47
2024-04-15T10:54:30.020Z,43.44
2024-04-15T10:55:30.151Z,43.43
2024-04-15T10:56:30.195Z,43.50
2024-04-15T10:57:30.281Z,43.69
2024-04-15T10:58:30.351Z,43.69
2024-04-15T10:59:30.445Z,43.63
2024-04-15T11:00:30.575Z,43.77
2024-04-15T11:01:30.699Z,43.77
2024-04-15T11:02:30.838Z,43.80
2024-04-15T11:03:30.800Z,44.07
2024-04-15T11:04:30.960Z,44.18
2024-04-15T11:05:31.012Z,44.36
2024-04-15T11:06:31.071Z,44.21
2024-04-15T11:07:31.256Z,44.25
2024-04-15T11:08:31.277Z,44.04
2024-04-15T11:09:31.343Z,44.02
2024-04-15T11:10:31.452Z,43.93
2024-04-15T11:11:31.576Z,43.85
2024-04-15T11:12:31.566Z,43.83
2024-04-15T11:13:31.706Z,43.70
2024-04-15T11:14:31.705Z,43.52
2024-04-15T11:15:31.802Z,43.51
2024-04-15T11:16:31.958Z,43.63
2024-04-15T11:17:32.014Z,43.73
2024-04-15T11:18:31.949Z,43.89
2024-04-15T11:19:32.078Z,43.82
2024-04-15T11:20:32.084Z,43.91
2024-04-15T11:21:32.185Z,44.02
2024-04-15T11:22:33.614Z,44.06
2024-04-15T11:23:32.274Z,44.23
2024-04-15T11:24:32.291Z,44.28
2024-04-15T11:25:32.364Z,44.40
2024-04-15T11:26:32.365Z,44.39
2024-04-15T11:27:32.403Z,44.45
2024-04-15T11:28:32.531Z,44.66
2024-04-15T11:29:34.344Z,44.30
2024-04-15T11:30:32.441Z,43.52
2024-04-15T11:31:32.474Z,43.51
2024-04-15T11:32:32.550Z,43.79
2024-04-15T11:33:32.587Z,43.48
2024-04-15T11:34:32.591Z,43.18
2024-04-15T11:35:32.513Z,42.83
2024-04-15T11:36:32.497Z,42.65
2024-04-15T11:37:32.656Z,42.53
2024-04-15T11:38:32.540Z,42.40
2024-04-15T11:39:32.504Z,42.35
2024-04-15T11:40:32.736Z,42.35
2024-04-15T11:41:32.544Z,42.31
2024-04-15T11:42:32.731Z,42.20
2024-04-15T11:43:32.537Z,42.13
2024-04-15T11:44:32.524Z,42.04
2024-04-15T11:45:32.534Z,41.96
2024-04-15T11:46:32.686Z,41.78
2024-04-15T11:47:32.589Z,41.79
2024-04-15T11:48:32.531Z,41.81
2024-04-15T11:49:32.588Z,41.78
2024-04-15T11:50:32.523Z,41.74
2024-04-15T11:51:32.552Z,41.73
2024-04-15T11:52:32.595Z,41.75
2024-04-15T11:53:32.545Z,41.73
2024-04-15T11:54:32.538Z,41.62
2024-04-15T11:55:32.626Z,41.63
2024-04-15T11:56:32.592Z,41.64
2024-04-15T11:57:32.566Z,41.58
2024-04-15T11:58:32.660Z,41.55
2024-04-15T11:59:32.583Z,41.55
2024-04-15T12:00:32.643Z,41.56
2024-04-15T12:01:32.672Z,41.49
2024-04-15T12:02:32.594Z,41.47
2024-04-15T12:03:32.619Z,41.40
2024-04-15T12:04:32.889Z,41.40
2024-04-15T12:05:32.680Z,41.34
2024-04-15T12:06:32.587Z,41.39
2024-04-15T12:07:32.654Z,41.32
2024-04-15T12:08:32.588Z,41.31
2024-04-15T12:09:32.610Z,41.29
2024-04-15T12:10:32.693Z,41.29
2024-04-15T12:11:32.634Z,41.20
2024-04-15T12:12:32.706Z,41.21
2024-04-15T12:13:32.719Z,41.17
2024-04-15T12:14:32.738Z,41.12
2024-04-15T12:15:32.860Z,41.08
2024-04-15T12:16:32.983Z,40.98
2024-04-15T12:17:33.059Z,40.98
2024-04-15T12:18:33.070Z,40.95
2024-04-15T12:19:33.170Z,40.94
2024-04-15T12:20:33.236Z,40.84
2024-04-15T12:21:35.400Z,40.84
2024-04-15T12:22:33.396Z,40.77
2024-04-15T12:23:33.360Z,40.71
2024-04-15T12:24:33.467Z,40.74
2024-04-15T12:25:33.532Z,40.90
2024-04-15T12:26:33.573Z,40.87
2024-04-15T12:27:36.153Z,40.95
2024-04-15T12:28:33.675Z,40.99
2024-04-15T12:29:33.684Z,41.09
2024-04-15T12:30:33.787Z,41.10
2024-04-15T12:31:33.672Z,41.14
2024-04-15T12:32:33.746Z,41.18
2024-04-15T12:33:35.475Z,41.18
2024-04-15T12:34:33.691Z,41.25
2024-04-15T12:35:33.660Z,41.30
2024-04-15T12:36:33.668Z,41.30
2024-04-15T12:37:33.690Z,41.38
2024-04-15T12:38:33.697Z,41.39
2024-04-15T12:39:33.702Z,41.44
2024-04-15T12:40:33.755Z,41.42
2024-04-15T12:41:33.696Z,41.42
2024-04-15T12:42:33.716Z,41.49
2024-04-15T12:43:33.722Z,41.53
2024-04-15T12:44:33.684Z,41.53
2024-04-15T12:45:33.690Z,41.55
2024-04-15T12:46:33.755Z,41.52
2024-04-15T12:47:33.962Z,41.58
2024-04-15T12:48:33.799Z,41.54
2024-04-15T12:49:34.306Z,41.53
2024-04-15T12:50:33.887Z,41.54
2024-04-15T12:51:33.975Z,41.54
2024-04-15T12:52:34.162Z,41.58
2024-04-15T12:53:34.178Z,41.56